Terminal Aerodrome Forecast
Issued by NWS

Home | Current Version | Previous Version | Graphics & Text | Print | Product List | Glossary On
Versions: 1 2 3 4 5 6 7 8 9 10 11 12 13 14 15 16 17
000
FTUS43 KTOP 201700
TAFFOE
TAF
KFOE 201720Z 2018/2118 23012KT P6SM FEW090
     FM202000 27008KT P6SM VCTS BKN040CB
      TEMPO 2020/2024 27008G30KT 4SM TSRA
     FM210200 33007KT P6SM FEW050=

USA.gov is the U.S. government's official web portal to all federal, state and local government web resources and services.